createdAt,value
2023-01-17T00:00:43.198Z,88.46
2023-01-17T00:03:12.076Z,88.24
2023-01-17T00:05:58.731Z,87.97
2023-01-17T00:08:44.047Z,86.75
2023-01-17T00:11:11.972Z,86.92
2023-01-17T00:13:39.487Z,87.55
2023-01-17T00:16:07.546Z,87.22
2023-01-17T00:18:36.615Z,87.94
2023-01-17T00:21:18.171Z,87.37
2023-01-17T00:24:03.444Z,87.80
2023-01-17T00:26:32.289Z,87.59
2023-01-17T00:28:58.736Z,87.30
2023-01-17T00:31:25.233Z,87.52
2023-01-17T00:33:53.201Z,88.12
2023-01-17T00:36:19.660Z,88.10
2023-01-17T00:38:46.135Z,87.27
2023-01-17T00:41:14.611Z,88.06
2023-01-17T00:44:00.120Z,87.75
2023-01-17T00:46:45.906Z,87.71
2023-01-17T00:49:32.381Z,88.17
2023-01-17T00:52:17.777Z,88.10
2023-01-17T00:55:03.064Z,88.45
2023-01-17T00:57:49.082Z,87.46
2023-01-17T01:00:36.065Z,88.82
2023-01-17T01:03:27.427Z,89.25
2023-01-17T01:06:13.781Z,88.88
2023-01-17T01:08:59.294Z,89.92
2023-01-17T01:11:44.810Z,89.89
2023-01-17T01:14:30.204Z,90.36
2023-01-17T01:17:15.645Z,90.91
2023-01-17T01:20:01.121Z,91.07
2023-01-17T01:22:48.081Z,91.65
2023-01-17T01:25:33.453Z,92.05
2023-01-17T01:28:22.857Z,92.90
2023-01-17T01:31:08.329Z,93.46
2023-01-17T01:33:36.241Z,94.25
2023-01-17T01:36:03.923Z,93.44
2023-01-17T01:38:32.932Z,94.16
2023-01-17T01:41:00.485Z,94.12
2023-01-17T01:43:43.342Z,94.65
2023-01-17T01:46:12.847Z,94.35
2023-01-17T01:48:43.475Z,96.06
2023-01-17T01:51:13.450Z,96.37
2023-01-17T01:53:46.683Z,97.90
2023-01-17T01:56:15.307Z,98.24
2023-01-17T01:58:45.457Z,98.96
2023-01-17T02:01:13.150Z,99.97
2023-01-17T02:03:42.014Z,100.00
2023-01-17T02:06:18.281Z,100.00
2023-01-17T02:08:47.312Z,100.00
2023-01-17T02:11:15.015Z,100.00
2023-01-17T02:13:42.862Z,100.00
2023-01-17T02:16:17.224Z,100.00
2023-01-17T02:18:49.905Z,100.00
2023-01-17T02:21:24.134Z,100.00
2023-01-17T02:24:33.844Z,100.00
2023-01-17T02:27:05.560Z,100.00
2023-01-17T02:30:05.656Z,100.00
2023-01-17T02:32:41.486Z,100.00
2023-01-17T02:35:15.278Z,100.00
2023-01-17T02:37:49.856Z,100.00
2023-01-17T02:40:20.988Z,100.00
2023-01-17T02:42:56.194Z,100.00
2023-01-17T02:45:23.857Z,100.00
2023-01-17T02:47:52.724Z,100.00
2023-01-17T02:50:22.329Z,99.34
2023-01-17T02:52:57.683Z,98.81
2023-01-17T02:55:36.724Z,97.86
2023-01-17T02:58:20.286Z,97.84
2023-01-17T03:00:56.376Z,97.28
2023-01-17T03:03:28.698Z,96.92
2023-01-17T03:06:00.583Z,96.25
2023-01-17T03:08:28.860Z,97.49
2023-01-17T03:10:56.493Z,96.84
2023-01-17T03:13:24.107Z,96.93
2023-01-17T03:15:51.881Z,97.22
2023-01-17T03:18:19.436Z,96.31
2023-01-17T03:20:48.317Z,95.64
2023-01-17T03:23:15.862Z,95.24
2023-01-17T03:25:43.400Z,94.85
2023-01-17T03:28:10.909Z,95.61
2023-01-17T03:30:38.459Z,94.91
2023-01-17T03:33:06.050Z,95.96
2023-01-17T03:35:33.666Z,96.33
2023-01-17T03:38:02.540Z,97.27
2023-01-17T03:40:30.047Z,95.68
2023-01-17T03:42:57.655Z,96.61
2023-01-17T03:45:25.185Z,96.45
2023-01-17T03:47:53.771Z,96.72
2023-01-17T03:50:21.757Z,97.04
2023-01-17T03:52:49.307Z,96.39
2023-01-17T03:55:18.443Z,97.00
2023-01-17T03:57:45.960Z,96.61
2023-01-17T04:00:14.594Z,98.18
2023-01-17T04:02:42.154Z,98.42
2023-01-17T04:05:10.325Z,96.05
2023-01-17T04:07:37.973Z,94.11
2023-01-17T04:10:06.687Z,92.83
2023-01-17T04:12:35.553Z,92.36
2023-01-17T04:15:03.058Z,92.82
2023-01-17T04:17:30.762Z,91.95
2023-01-17T04:19:58.410Z,91.50
2023-01-17T04:22:25.956Z,90.89
2023-01-17T04:24:53.550Z,89.91
2023-01-17T04:27:21.069Z,90.00
2023-01-17T04:29:49.895Z,90.54
2023-01-17T04:32:17.441Z,91.57
2023-01-17T04:34:44.938Z,92.17
2023-01-17T04:37:12.546Z,92.23
2023-01-17T04:39:40.068Z,90.86
2023-01-17T04:42:07.568Z,90.55
2023-01-17T04:44:35.101Z,90.57
2023-01-17T04:47:03.977Z,89.60
2023-01-17T04:49:31.479Z,90.11
2023-01-17T04:51:59.566Z,91.74
2023-01-17T04:54:27.308Z,91.75
2023-01-17T04:56:54.850Z,92.05
2023-01-17T04:59:22.435Z,92.33
2023-01-17T05:01:50.135Z,92.76
2023-01-17T05:04:19.298Z,92.32
2023-01-17T05:06:46.839Z,92.65
2023-01-17T05:09:14.338Z,92.35
2023-01-17T05:11:41.885Z,91.10
2023-01-17T05:14:10.529Z,91.08
2023-01-17T05:16:38.058Z,91.37
2023-01-17T05:19:05.604Z,91.19
2023-01-17T05:21:34.501Z,90.82
2023-01-17T05:24:02.112Z,92.40
2023-01-17T05:26:29.647Z,91.69
2023-01-17T05:28:57.185Z,92.54
2023-01-17T05:31:24.855Z,92.13
2023-01-17T05:33:52.437Z,92.25
2023-01-17T05:36:21.230Z,93.00
2023-01-17T05:38:50.171Z,92.23
2023-01-17T05:41:17.731Z,91.17
2023-01-17T05:43:45.257Z,90.69
2023-01-17T05:46:12.935Z,90.60
2023-01-17T05:48:40.464Z,91.38
2023-01-17T05:51:08.048Z,92.08
2023-01-17T05:53:35.571Z,92.76
2023-01-17T05:56:04.481Z,93.36
2023-01-17T05:58:32.067Z,93.17
2023-01-17T06:00:59.607Z,96.10
2023-01-17T06:03:27.482Z,97.55
2023-01-17T06:05:55.053Z,98.16
2023-01-17T06:08:23.423Z,97.74
2023-01-17T06:10:51.008Z,98.95
2023-01-17T06:13:23.673Z,99.44
2023-01-17T06:15:51.387Z,100.00
2023-01-17T06:18:19.550Z,100.00
2023-01-17T06:20:47.083Z,100.00
2023-01-17T06:23:15.703Z,100.00
2023-01-17T06:25:44.584Z,100.00
2023-01-17T06:28:13.645Z,100.00
2023-01-17T06:30:43.844Z,100.00
2023-01-17T06:33:11.788Z,100.00
2023-01-17T06:35:40.853Z,100.00
2023-01-17T06:38:09.912Z,100.00
2023-01-17T06:40:37.520Z,100.00
2023-01-17T06:43:05.957Z,100.00
2023-01-17T06:45:35.124Z,100.00
2023-01-17T06:48:05.523Z,100.00
2023-01-17T06:50:33.725Z,100.00
2023-01-17T06:53:02.869Z,100.00
2023-01-17T06:55:31.402Z,100.00
2023-01-17T06:57:59.563Z,100.00
2023-01-17T07:00:27.790Z,100.00
2023-01-17T07:02:56.070Z,100.00
2023-01-17T07:05:24.940Z,100.00
2023-01-17T07:07:53.619Z,100.00
2023-01-17T07:10:22.000Z,100.00
2023-01-17T07:12:49.558Z,100.00
2023-01-17T07:15:17.134Z,100.00
2023-01-17T07:17:45.071Z,100.00
2023-01-17T07:20:13.488Z,100.00
2023-01-17T07:22:45.568Z,100.00
2023-01-17T07:25:13.241Z,100.00
2023-01-17T07:27:40.810Z,100.00
2023-01-17T07:30:10.072Z,100.00
2023-01-17T07:32:37.845Z,100.00
2023-01-17T07:35:06.055Z,100.00
2023-01-17T07:37:33.798Z,100.00
2023-01-17T07:40:04.318Z,100.00
2023-01-17T07:42:31.838Z,100.00
2023-01-17T07:45:00.605Z,100.00
2023-01-17T07:47:28.137Z,100.00
2023-01-17T07:49:55.817Z,100.00
2023-01-17T07:52:23.629Z,100.00
2023-01-17T07:54:51.179Z,100.00
2023-01-17T07:57:20.075Z,100.00
2023-01-17T07:59:47.616Z,100.00
2023-01-17T08:02:18.652Z,100.00
2023-01-17T08:04:46.674Z,100.00
2023-01-17T08:07:14.711Z,100.00
2023-01-17T08:09:42.649Z,100.00
2023-01-17T08:12:10.584Z,100.00
2023-01-17T08:14:39.468Z,100.00
2023-01-17T08:17:07.131Z,100.00
2023-01-17T08:19:34.761Z,100.00
2023-01-17T08:22:02.360Z,100.00
2023-01-17T08:24:29.945Z,100.00
2023-01-17T08:26:57.496Z,100.00
2023-01-17T08:29:25.498Z,100.00
2023-01-17T08:31:54.611Z,100.00
2023-01-17T08:34:22.403Z,100.00
2023-01-17T08:36:49.961Z,100.00
2023-01-17T08:39:17.735Z,100.00
2023-01-17T08:41:45.300Z,100.00
2023-01-17T08:44:13.913Z,100.00
2023-01-17T08:46:44.038Z,100.00
2023-01-17T08:49:13.398Z,100.00
2023-01-17T08:51:41.444Z,100.00
2023-01-17T08:54:12.838Z,100.00
2023-01-17T08:56:40.463Z,100.00
2023-01-17T08:59:08.002Z,100.00
2023-01-17T09:01:40.564Z,100.00
2023-01-17T09:04:08.503Z,100.00
2023-01-17T09:06:39.373Z,100.00
2023-01-17T09:09:07.377Z,99.80
2023-01-17T09:11:35.284Z,100.00
2023-01-17T09:14:02.813Z,100.00
2023-01-17T09:16:30.448Z,100.00
2023-01-17T09:18:59.251Z,100.00
2023-01-17T09:21:27.680Z,100.00
2023-01-17T09:23:56.849Z,100.00
2023-01-17T09:26:26.618Z,98.86
2023-01-17T09:28:54.251Z,96.44
2023-01-17T09:31:23.546Z,94.07
2023-01-17T09:33:52.532Z,92.01
2023-01-17T09:36:20.583Z,90.15
2023-01-17T09:38:48.239Z,89.71
2023-01-17T09:41:22.987Z,88.50
2023-01-17T09:43:52.852Z,87.77
2023-01-17T09:46:23.799Z,88.14
2023-01-17T09:48:54.985Z,88.67
2023-01-17T09:51:24.231Z,88.06
2023-01-17T09:53:52.270Z,88.78
2023-01-17T09:56:27.821Z,89.06
2023-01-17T09:59:07.247Z,87.60
2023-01-17T10:01:40.261Z,87.63
2023-01-17T10:04:19.935Z,88.16
2023-01-17T10:07:00.926Z,90.22
2023-01-17T10:09:41.568Z,91.29
2023-01-17T10:12:21.341Z,91.07
2023-01-17T10:15:03.198Z,90.11
2023-01-17T10:17:39.803Z,90.01
2023-01-17T10:20:20.782Z,90.21
2023-01-17T10:23:00.628Z,87.76
2023-01-17T10:25:44.174Z,84.79
2023-01-17T10:28:17.449Z,84.67
2023-01-17T10:30:49.854Z,82.75
2023-01-17T10:33:21.179Z,82.35
2023-01-17T10:35:56.967Z,81.70
2023-01-17T10:38:30.134Z,80.72
2023-01-17T10:41:02.428Z,79.77
2023-01-17T10:43:40.272Z,77.37
2023-01-17T10:46:16.384Z,75.66
2023-01-17T10:48:45.936Z,75.11
2023-01-17T10:51:22.927Z,71.49
2023-01-17T10:54:01.790Z,71.30
2023-01-17T10:56:30.888Z,71.50
2023-01-17T10:59:09.762Z,69.60
2023-01-17T11:01:37.523Z,68.80
2023-01-17T11:04:05.098Z,72.73
2023-01-17T11:06:33.169Z,73.09
2023-01-17T11:09:02.218Z,70.13
2023-01-17T11:11:31.880Z,70.81
2023-01-17T11:14:02.266Z,71.71
2023-01-17T11:16:31.350Z,69.47
2023-01-17T11:19:08.453Z,68.79
2023-01-17T11:21:38.160Z,69.92
2023-01-17T11:24:11.848Z,69.14
2023-01-17T11:26:47.504Z,70.13
2023-01-17T11:29:24.514Z,69.33
2023-01-17T11:31:52.072Z,70.05
2023-01-17T11:34:23.841Z,70.50
2023-01-17T11:37:08.696Z,70.38
2023-01-17T11:39:36.445Z,69.68
2023-01-17T11:42:07.003Z,70.18
2023-01-17T11:44:36.732Z,71.19
2023-01-17T11:47:17.005Z,71.81
2023-01-17T11:49:46.616Z,71.85
2023-01-17T11:52:20.090Z,73.82
2023-01-17T11:54:48.287Z,73.80
2023-01-17T11:57:21.597Z,74.37
2023-01-17T11:59:52.525Z,74.20
2023-01-17T12:02:46.974Z,75.72
2023-01-17T12:05:27.816Z,76.42
2023-01-17T12:08:02.368Z,77.17
2023-01-17T12:10:34.505Z,76.94
2023-01-17T12:13:26.495Z,75.71
2023-01-17T12:16:22.285Z,75.51
2023-01-17T12:18:55.159Z,75.09
2023-01-17T12:21:26.954Z,75.13
2023-01-17T12:24:01.603Z,75.21
2023-01-17T12:26:35.063Z,74.65
2023-01-17T12:29:37.270Z,74.99
2023-01-17T12:32:30.050Z,74.03
2023-01-17T12:35:01.874Z,73.73
2023-01-17T12:37:34.477Z,72.92
2023-01-17T12:40:06.229Z,72.23
2023-01-17T12:42:36.218Z,72.71
2023-01-17T12:45:06.185Z,73.16
2023-01-17T12:47:38.541Z,73.44
2023-01-17T12:50:13.250Z,71.71
2023-01-17T12:52:49.092Z,72.02
2023-01-17T12:55:19.206Z,71.67
2023-01-17T12:57:50.884Z,71.04
2023-01-17T13:00:22.969Z,71.32
2023-01-17T13:02:55.217Z,70.73
2023-01-17T13:05:26.183Z,71.52
2023-01-17T13:07:57.803Z,69.98
2023-01-17T13:10:31.120Z,71.29
2023-01-17T13:13:02.883Z,70.90
2023-01-17T13:15:37.478Z,70.55
2023-01-17T13:18:10.467Z,70.69
2023-01-17T13:20:49.811Z,69.52
2023-01-17T13:23:24.729Z,70.78
2023-01-17T13:25:52.420Z,70.75
2023-01-17T13:28:28.604Z,72.42
2023-01-17T13:31:15.482Z,73.38
2023-01-17T13:33:56.623Z,73.70
2023-01-17T13:36:35.569Z,74.86
2023-01-17T13:39:33.150Z,74.38
2023-01-17T13:42:11.413Z,74.21
2023-01-17T13:44:38.947Z,73.86
2023-01-17T13:47:08.112Z,73.81
2023-01-17T13:49:45.480Z,74.68
2023-01-17T13:52:33.174Z,74.66
2023-01-17T13:55:02.797Z,75.20
2023-01-17T13:57:41.883Z,75.56
2023-01-17T14:00:43.053Z,75.63
2023-01-17T14:03:11.746Z,75.71
2023-01-17T14:05:49.177Z,74.71
2023-01-17T14:08:17.969Z,75.75
2023-01-17T14:10:47.839Z,76.06
2023-01-17T14:13:33.680Z,76.44
2023-01-17T14:16:01.578Z,76.93
2023-01-17T14:18:34.385Z,77.02
2023-01-17T14:21:12.192Z,77.23
2023-01-17T14:23:51.824Z,77.40
2023-01-17T14:26:28.086Z,77.34
2023-01-17T14:28:56.789Z,77.90
2023-01-17T14:31:25.221Z,77.98
2023-01-17T14:33:54.149Z,77.05
2023-01-17T14:36:29.498Z,77.18
2023-01-17T14:38:57.338Z,76.84
2023-01-17T14:41:26.778Z,77.65
2023-01-17T14:43:54.953Z,77.17
2023-01-17T14:46:25.804Z,78.10
2023-01-17T14:49:00.768Z,78.56
2023-01-17T14:51:29.681Z,78.79
2023-01-17T14:53:58.754Z,79.30
2023-01-17T14:56:27.289Z,78.91
2023-01-17T14:59:14.338Z,79.88
2023-01-17T15:01:42.632Z,80.33
2023-01-17T15:04:22.574Z,81.21
2023-01-17T15:06:51.820Z,81.86
2023-01-17T15:09:20.905Z,82.17
2023-01-17T15:11:50.066Z,82.46
2023-01-17T15:14:21.024Z,83.12
2023-01-17T15:16:52.179Z,83.49
2023-01-17T15:19:20.488Z,84.08
2023-01-17T15:21:50.539Z,83.60
2023-01-17T15:24:21.075Z,84.17
2023-01-17T15:26:49.111Z,84.32
2023-01-17T15:29:22.866Z,84.37
2023-01-17T15:31:52.512Z,84.73
2023-01-17T15:34:26.422Z,84.99
2023-01-17T15:36:56.861Z,85.59
2023-01-17T15:39:27.753Z,85.27
2023-01-17T15:41:56.404Z,85.99
2023-01-17T15:44:33.419Z,86.60
2023-01-17T15:47:26.925Z,87.11
2023-01-17T15:49:54.589Z,87.83
2023-01-17T15:52:22.393Z,87.94
2023-01-17T15:54:53.407Z,88.55
2023-01-17T15:57:24.832Z,89.89
2023-01-17T15:59:55.493Z,89.96
2023-01-17T16:02:43.627Z,90.72
2023-01-17T16:05:33.049Z,91.43
2023-01-17T16:08:19.188Z,92.40
2023-01-17T16:10:48.059Z,94.30
2023-01-17T16:13:15.719Z,95.88
2023-01-17T16:15:43.299Z,96.13
2023-01-17T16:18:16.432Z,97.59
2023-01-17T16:20:45.943Z,98.97
2023-01-17T16:23:13.539Z,99.78
2023-01-17T16:25:41.028Z,100.00
2023-01-17T16:28:09.961Z,100.00
2023-01-17T16:30:37.665Z,100.00
2023-01-17T16:33:06.675Z,100.00
2023-01-17T16:35:35.451Z,99.86
2023-01-17T16:38:05.810Z,100.00
2023-01-17T16:40:34.853Z,99.67
2023-01-17T16:43:02.458Z,98.69
2023-01-17T16:45:31.353Z,98.53
2023-01-17T16:47:58.890Z,98.55
2023-01-17T16:50:26.391Z,98.29
2023-01-17T16:52:56.151Z,98.05
2023-01-17T16:55:25.093Z,99.26
2023-01-17T16:57:54.717Z,98.74
2023-01-17T17:00:23.559Z,98.66
2023-01-17T17:02:52.783Z,98.83
2023-01-17T17:05:21.054Z,97.93
2023-01-17T17:07:51.658Z,99.58
2023-01-17T17:10:21.432Z,99.91
2023-01-17T17:12:49.032Z,100.00
2023-01-17T17:15:16.603Z,100.00
2023-01-17T17:17:44.487Z,100.00
2023-01-17T17:20:15.578Z,100.00
2023-01-17T17:22:44.550Z,100.00
2023-01-17T17:25:13.411Z,100.00
2023-01-17T17:27:40.980Z,100.00
2023-01-17T17:30:09.977Z,100.00
2023-01-17T17:32:37.562Z,100.00
2023-01-17T17:35:05.845Z,100.00
2023-01-17T17:37:34.704Z,100.00
2023-01-17T17:40:02.263Z,100.00
2023-01-17T17:42:29.823Z,100.00
2023-01-17T17:44:57.372Z,100.00
2023-01-17T17:47:24.995Z,100.00
2023-01-17T17:49:52.487Z,100.00
2023-01-17T17:52:20.028Z,100.00
2023-01-17T17:54:48.905Z,100.00
2023-01-17T17:57:16.428Z,99.70
2023-01-17T17:59:43.972Z,98.71
2023-01-17T18:02:12.106Z,99.56
2023-01-17T18:04:39.729Z,100.00
2023-01-17T18:07:07.383Z,100.00
2023-01-17T18:09:35.599Z,100.00
2023-01-17T18:12:04.795Z,100.00
2023-01-17T18:14:32.549Z,100.00
2023-01-17T18:17:00.146Z,100.00
2023-01-17T18:19:27.874Z,100.00
2023-01-17T18:21:55.429Z,100.00
2023-01-17T18:24:24.217Z,100.00
2023-01-17T18:26:53.133Z,100.00
2023-01-17T18:29:22.889Z,100.00
2023-01-17T18:31:51.335Z,100.00
2023-01-17T18:34:21.234Z,100.00
2023-01-17T18:36:49.662Z,100.00
2023-01-17T18:39:18.429Z,100.00
2023-01-17T18:41:46.029Z,100.00
2023-01-17T18:44:13.855Z,100.00
2023-01-17T18:46:43.309Z,100.00
2023-01-17T18:49:12.434Z,100.00
2023-01-17T18:51:40.115Z,100.00
2023-01-17T18:54:08.912Z,100.00
2023-01-17T18:56:36.570Z,100.00
2023-01-17T18:59:06.812Z,100.00
2023-01-17T19:01:36.346Z,100.00
2023-01-17T19:04:06.452Z,100.00
2023-01-17T19:06:35.981Z,100.00
2023-01-17T19:09:03.995Z,100.00
2023-01-17T19:11:31.495Z,100.00
2023-01-17T19:13:59.047Z,100.00
2023-01-17T19:16:28.830Z,100.00
2023-01-17T19:18:57.288Z,100.00
2023-01-17T19:21:28.294Z,100.00
2023-01-17T19:23:56.885Z,100.00
2023-01-17T19:26:25.173Z,100.00
2023-01-17T19:28:52.883Z,100.00
2023-01-17T19:31:22.145Z,100.00
2023-01-17T19:33:51.319Z,100.00
2023-01-17T19:36:20.746Z,100.00
2023-01-17T19:39:03.577Z,100.00
2023-01-17T19:41:32.348Z,100.00
2023-01-17T19:44:01.906Z,100.00
2023-01-17T19:46:29.615Z,100.00
2023-01-17T19:48:57.888Z,100.00
2023-01-17T19:51:26.673Z,100.00
2023-01-17T19:53:56.063Z,100.00
2023-01-17T19:56:25.464Z,100.00
2023-01-17T19:58:53.308Z,100.00
2023-01-17T20:01:23.954Z,100.00
2023-01-17T20:03:52.199Z,100.00
2023-01-17T20:06:21.509Z,100.00
2023-01-17T20:08:49.552Z,100.00
2023-01-17T20:11:19.965Z,100.00
2023-01-17T20:13:48.466Z,100.00
2023-01-17T20:16:17.888Z,100.00
2023-01-17T20:18:45.891Z,100.00
2023-01-17T20:21:14.924Z,100.00
2023-01-17T20:23:43.814Z,99.63
2023-01-17T20:26:12.195Z,100.00
2023-01-17T20:28:42.216Z,100.00
2023-01-17T20:31:12.718Z,100.00
2023-01-17T20:33:40.978Z,99.85
2023-01-17T20:36:11.218Z,98.60
2023-01-17T20:38:44.579Z,98.16
2023-01-17T20:41:13.507Z,98.19
2023-01-17T20:43:42.514Z,98.47
2023-01-17T20:46:10.633Z,98.60
2023-01-17T20:48:39.084Z,98.84
2023-01-17T20:51:10.466Z,99.49
2023-01-17T20:53:39.118Z,98.85
2023-01-17T20:56:08.662Z,100.00
2023-01-17T20:58:36.238Z,100.00
2023-01-17T21:01:05.662Z,99.91
2023-01-17T21:03:35.029Z,100.00
2023-01-17T21:06:03.470Z,99.67
2023-01-17T21:08:31.525Z,100.00
2023-01-17T21:10:59.097Z,100.00
2023-01-17T21:13:26.661Z,100.00
2023-01-17T21:15:54.516Z,100.00
2023-01-17T21:18:24.885Z,100.00
2023-01-17T21:20:52.730Z,100.00
2023-01-17T21:23:20.605Z,100.00
2023-01-17T21:25:58.415Z,100.00
2023-01-17T21:28:28.376Z,100.00
2023-01-17T21:30:56.348Z,100.00
2023-01-17T21:33:26.624Z,100.00
2023-01-17T21:35:54.792Z,100.00
2023-01-17T21:38:22.563Z,100.00
2023-01-17T21:40:50.107Z,100.00
2023-01-17T21:43:17.648Z,100.00
2023-01-17T21:45:45.183Z,100.00
2023-01-17T21:48:13.205Z,100.00
2023-01-17T21:50:42.171Z,100.00
2023-01-17T21:53:10.070Z,100.00
2023-01-17T21:55:55.518Z,100.00
2023-01-17T21:58:40.994Z,100.00
2023-01-17T22:01:10.961Z,100.00
2023-01-17T22:03:38.659Z,100.00
2023-01-17T22:06:07.948Z,100.00
2023-01-17T22:08:35.816Z,100.00
2023-01-17T22:11:04.235Z,100.00
2023-01-17T22:13:32.292Z,100.00
2023-01-17T22:16:00.775Z,100.00
2023-01-17T22:18:29.312Z,100.00
2023-01-17T22:20:57.363Z,100.00
2023-01-17T22:23:26.783Z,100.00
2023-01-17T22:25:54.331Z,100.00
2023-01-17T22:28:21.893Z,100.00
2023-01-17T22:30:49.445Z,100.00
2023-01-17T22:33:16.984Z,100.00
2023-01-17T22:35:44.518Z,100.00
2023-01-17T22:38:12.020Z,100.00
2023-01-17T22:40:40.947Z,100.00
2023-01-17T22:43:08.613Z,100.00
2023-01-17T22:45:36.091Z,100.00
2023-01-17T22:48:03.593Z,100.00
2023-01-17T22:50:31.195Z,100.00
2023-01-17T22:52:59.002Z,100.00
2023-01-17T22:55:27.117Z,100.00
2023-01-17T22:57:56.856Z,100.00
2023-01-17T23:00:24.530Z,100.00
2023-01-17T23:02:52.095Z,100.00
2023-01-17T23:05:20.320Z,100.00
2023-01-17T23:07:50.508Z,100.00
2023-01-17T23:10:38.929Z,100.00
2023-01-17T23:13:10.743Z,100.00
2023-01-17T23:15:56.990Z,100.00
2023-01-17T23:18:42.117Z,100.00
2023-01-17T23:21:09.678Z,100.00
2023-01-17T23:23:37.186Z,100.00
2023-01-17T23:26:04.916Z,100.00
2023-01-17T23:28:32.918Z,100.00
2023-01-17T23:31:02.991Z,100.00
2023-01-17T23:33:30.545Z,100.00
2023-01-17T23:35:58.051Z,100.00
2023-01-17T23:38:29.892Z,100.00
2023-01-17T23:41:19.578Z,100.00
2023-01-17T23:43:52.588Z,100.00
2023-01-17T23:46:20.473Z,100.00
2023-01-17T23:48:48.558Z,100.00
2023-01-17T23:51:16.136Z,100.00
2023-01-17T23:53:43.692Z,100.00
2023-01-17T23:56:14.855Z,100.00
2023-01-17T23:58:42.399Z,100.00
